Time;durP1;ratioP1;P1;durP2;ratioP2;P2;SDS_P1;SDS_P2;PMS_P1;PMS_P2;Temp;Humidity;BMP_temperature;BMP_pressure;BME280_temperature;BME280_humidity;BME280_pressure;Samples;Min_cycle;Max_cycle;Signal;HPM_P1;HPM_P2
2022/07/10 00:00:26;;;;;;;10.68;1.85;;;14.20;99.90;;;;;;5078386;28;20360;-77
2022/07/10 00:02:55;;;;;;;10.85;1.55;;;14.20;99.90;;;;;;5044841;28;20036;-78
2022/07/10 00:05:21;;;;;;;9.43;1.67;;;14.20;99.90;;;;;;5025538;28;20044;-77
2022/07/10 00:07:48;;;;;;;9.32;1.27;;;14.20;99.90;;;;;;5072902;28;20045;-77
2022/07/10 00:10:14;;;;;;;12.27;1.60;;;14.20;99.90;;;;;;5042272;28;20043;-78
2022/07/10 00:12:39;;;;;;;15.68;1.98;;;14.20;99.90;;;;;;5044073;28;20044;-78
2022/07/10 00:15:06;;;;;;;13.45;1.83;;;14.30;99.90;;;;;;5057218;28;20041;-78
2022/07/10 00:17:32;;;;;;;11.15;1.63;;;14.30;99.90;;;;;;5072653;28;20051;-76
2022/07/10 00:19:59;;;;;;;11.57;1.70;;;14.30;99.90;;;;;;5046975;28;20039;-75
2022/07/10 00:22:25;;;;;;;10.63;1.60;;;14.40;99.90;;;;;;5065443;28;20045;-77
2022/07/10 00:24:50;;;;;;;9.25;1.33;;;14.30;99.90;;;;;;5030209;28;20047;-76
2022/07/10 00:27:19;;;;;;;10.77;1.45;;;14.30;99.90;;;;;;5046933;28;21381;-76
2022/07/10 00:29:45;;;;;;;9.93;1.70;;;14.20;99.90;;;;;;5052082;28;20132;-78
2022/07/10 00:32:11;;;;;;;10.07;1.40;;;14.20;99.90;;;;;;5043573;28;20041;-77
2022/07/10 00:34:38;;;;;;;9.48;1.70;;;14.20;99.90;;;;;;5026699;28;20107;-78
2022/07/10 00:37:04;;;;;;;13.00;2.00;;;14.20;99.90;;;;;;5071973;28;20048;-76
2022/07/10 00:39:30;;;;;;;11.40;1.83;;;14.20;99.90;;;;;;5042114;28;20043;-76
2022/07/10 00:42:09;;;;;;;9.63;1.42;;;14.20;99.90;;;;;;5073614;28;20037;-76
2022/07/10 00:44:35;;;;;;;14.77;2.03;;;14.20;99.90;;;;;;5024444;28;20032;-76
2022/07/10 00:47:05;;;;;;;8.27;1.75;;;14.30;99.90;;;;;;5034729;28;20060;-76
2022/07/10 00:49:33;;;;;;;10.00;1.67;;;14.30;99.90;;;;;;5044545;28;20051;-76
2022/07/10 00:52:01;;;;;;;10.93;1.67;;;14.30;99.90;;;;;;5071247;28;20190;-76
2022/07/10 00:54:28;;;;;;;13.23;2.30;;;14.20;99.90;;;;;;5044602;28;20044;-77
2022/07/10 00:56:54;;;;;;;11.23;1.50;;;14.20;99.90;;;;;;5028259;28;20059;-76
2022/07/10 00:59:21;;;;;;;12.38;1.75;;;14.30;99.90;;;;;;5042330;28;20051;-77
2022/07/10 01:01:48;;;;;;;10.98;1.77;;;14.20;99.90;;;;;;5022338;28;20661;-78
2022/07/10 01:04:13;;;;;;;10.00;1.70;;;14.10;99.90;;;;;;5077678;28;20041;-78
2022/07/10 01:06:39;;;;;;;11.27;1.73;;;14.10;99.90;;;;;;5073381;28;20048;-77
2022/07/10 01:09:05;;;;;;;15.30;2.10;;;14.10;99.90;;;;;;5049919;28;20036;-76
2022/07/10 01:11:34;;;;;;;15.52;1.95;;;14.10;99.90;;;;;;5053390;28;20055;-75
2022/07/10 01:14:01;;;;;;;12.48;1.88;;;14.00;99.90;;;;;;5047791;28;20037;-77
2022/07/10 01:16:30;;;;;;;19.27;2.47;;;14.00;99.90;;;;;;5040937;28;20048;-77
2022/07/10 01:18:57;;;;;;;15.35;2.00;;;14.00;99.90;;;;;;5054304;28;20195;-77
2022/07/10 01:21:31;;;;;;;13.00;1.80;;;14.00;99.90;;;;;;5067291;28;20067;-78
2022/07/10 01:24:03;;;;;;;7.10;1.42;;;14.00;99.90;;;;;;5074388;28;20094;-76
2022/07/10 01:26:29;;;;;;;7.93;1.38;;;14.00;99.90;;;;;;5021355;28;20534;-77
2022/07/10 01:28:55;;;;;;;13.05;1.80;;;13.90;99.90;;;;;;5041181;28;20044;-78
2022/07/10 01:31:25;;;;;;;9.43;1.67;;;13.90;99.90;;;;;;5025170;28;20106;-78
2022/07/10 01:33:51;;;;;;;11.93;1.42;;;13.90;99.90;;;;;;5058526;28;20101;-77
2022/07/10 01:36:17;;;;;;;7.30;1.42;;;13.90;99.90;;;;;;5040431;28;20395;-76
2022/07/10 01:38:43;;;;;;;12.07;1.58;;;13.80;99.90;;;;;;5074910;28;20078;-78
2022/07/10 01:41:09;;;;;;;7.55;1.52;;;13.80;99.90;;;;;;5039333;28;20062;-77
2022/07/10 01:43:35;;;;;;;9.45;1.45;;;13.80;99.90;;;;;;5055020;28;20052;-77
2022/07/10 01:46:04;;;;;;;14.45;1.60;;;13.80;99.90;;;;;;5023504;28;20481;-77
2022/07/10 01:48:30;;;;;;;12.75;1.30;;;13.70;99.90;;;;;;5031853;28;20154;-78
2022/07/10 01:50:57;;;;;;;7.13;1.17;;;13.70;99.90;;;;;;5078048;28;20426;-77
2022/07/10 01:53:23;;;;;;;13.35;1.58;;;13.60;99.90;;;;;;5035010;28;20048;-75
2022/07/10 01:55:49;;;;;;;9.43;1.30;;;13.70;99.90;;;;;;5068355;28;20384;-77
2022/07/10 01:58:14;;;;;;;15.27;1.77;;;13.70;99.90;;;;;;5069779;28;20135;-77
2022/07/10 02:00:40;;;;;;;14.05;1.75;;;13.70;99.90;;;;;;5043142;28;20094;-77
2022/07/10 02:05:49;;;;;;;12.45;1.63;;;13.60;99.90;;;;;;5053458;28;20098;-76
2022/07/10 02:08:15;;;;;;;8.35;1.65;;;13.70;99.90;;;;;;5071813;28;20040;-76
2022/07/10 02:10:41;;;;;;;16.15;1.55;;;13.60;99.90;;;;;;5073698;28;20063;-76
2022/07/10 02:13:07;;;;;;;12.10;1.50;;;13.50;99.90;;;;;;5043360;28;20131;-77
2022/07/10 02:15:32;;;;;;;10.75;1.65;;;13.50;99.90;;;;;;5038248;28;20055;-75
2022/07/10 02:17:58;;;;;;;12.02;1.60;;;13.50;99.90;;;;;;5031142;28;20123;-77
2022/07/10 02:20:23;;;;;;;8.35;1.38;;;13.50;99.90;;;;;;5039929;28;20045;-76
2022/07/10 02:22:49;;;;;;;11.95;2.05;;;13.50;99.90;;;;;;5043238;28;20063;-77
2022/07/10 02:25:15;;;;;;;11.50;1.55;;;13.60;99.90;;;;;;5053386;28;20048;-77
2022/07/10 02:27:40;;;;;;;12.27;1.35;;;13.60;99.90;;;;;;5052798;28;20143;-77
2022/07/10 02:30:06;;;;;;;12.35;1.30;;;13.60;99.90;;;;;;5025308;28;20392;-77
2022/07/10 02:32:32;;;;;;;8.35;1.52;;;13.60;99.90;;;;;;5040451;28;20040;-77
2022/07/10 02:34:58;;;;;;;10.32;1.85;;;13.60;99.90;;;;;;5032799;28;20040;-77
2022/07/10 02:37:23;;;;;;;8.40;1.40;;;13.60;99.90;;;;;;5041606;28;20047;-77
2022/07/10 02:39:49;;;;;;;15.80;1.90;;;13.60;99.90;;;;;;5043809;28;20115;-78
2022/07/10 02:42:15;;;;;;;17.60;2.03;;;13.70;99.90;;;;;;5078126;28;20048;-79
2022/07/10 02:44:41;;;;;;;8.98;1.30;;;13.80;99.90;;;;;;5073659;28;20052;-78
2022/07/10 02:47:06;;;;;;;13.68;1.58;;;13.80;99.90;;;;;;5056562;28;20049;-78
2022/07/10 02:49:33;;;;;;;4.95;1.05;;;13.80;99.90;;;;;;5039607;28;20677;-77
2022/07/10 02:51:59;;;;;;;13.85;1.88;;;13.80;99.90;;;;;;5054840;28;20080;-77
2022/07/10 02:54:24;;;;;;;11.00;1.58;;;13.80;99.90;;;;;;5070982;28;20071;-78
2022/07/10 02:56:50;;;;;;;11.55;1.98;;;13.80;99.90;;;;;;5020362;28;20102;-77
2022/07/10 02:59:16;;;;;;;9.63;1.42;;;13.80;99.90;;;;;;5058249;28;21234;-77
2022/07/10 03:01:42;;;;;;;15.13;2.00;;;13.80;99.90;;;;;;5076320;28;20264;-77
2022/07/10 03:04:08;;;;;;;16.83;1.85;;;13.80;99.90;;;;;;5071546;28;20041;-77
2022/07/10 03:06:33;;;;;;;10.38;1.98;;;13.80;99.90;;;;;;5044787;28;20044;-77
2022/07/10 03:08:59;;;;;;;12.50;1.92;;;13.80;99.90;;;;;;5046644;28;20036;-76
2022/07/10 03:11:24;;;;;;;10.70;1.63;;;13.80;99.90;;;;;;5078395;28;20472;-77
2022/07/10 03:13:50;;;;;;;13.45;1.75;;;13.80;99.90;;;;;;5068402;28;20567;-77
2022/07/10 03:16:16;;;;;;;12.57;1.70;;;13.90;99.90;;;;;;5048887;28;20068;-76
2022/07/10 03:18:41;;;;;;;10.32;1.83;;;13.90;99.90;;;;;;5058713;28;20052;-77
2022/07/10 03:21:07;;;;;;;10.23;1.55;;;13.90;99.90;;;;;;5044497;28;20051;-76
2022/07/10 03:23:32;;;;;;;10.73;1.55;;;14.00;99.90;;;;;;5028857;28;20124;-76
2022/07/10 03:25:58;;;;;;;16.55;2.00;;;14.00;99.90;;;;;;5055948;28;20123;-76
2022/07/10 03:28:25;;;;;;;13.10;1.70;;;14.10;99.90;;;;;;5041687;28;20106;-77
2022/07/10 03:30:51;;;;;;;15.80;1.95;;;14.10;99.90;;;;;;5053762;28;20036;-77
2022/07/10 03:33:16;;;;;;;11.20;1.75;;;14.20;99.90;;;;;;5039895;28;20033;-75
2022/07/10 03:35:42;;;;;;;10.23;1.63;;;14.20;99.90;;;;;;5020001;28;20158;-78
2022/07/10 03:38:08;;;;;;;15.95;1.80;;;14.20;99.90;;;;;;5022156;28;20068;-76
2022/07/10 03:40:33;;;;;;;11.27;1.90;;;14.30;99.90;;;;;;5021748;28;20044;-76
2022/07/10 03:42:59;;;;;;;17.83;2.13;;;14.40;99.90;;;;;;5022159;28;20029;-77
2022/07/10 03:45:25;;;;;;;15.70;2.05;;;14.40;99.90;;;;;;5055704;28;20097;-78
2022/07/10 03:47:50;;;;;;;12.18;2.00;;;14.50;99.90;;;;;;5019760;28;20496;-77
2022/07/10 03:50:16;;;;;;;8.75;1.50;;;14.50;99.90;;;;;;5009567;28;20070;-77
2022/07/10 03:52:44;;;;;;;13.60;2.03;;;14.50;99.90;;;;;;5025744;28;20041;-78
2022/07/10 03:55:09;;;;;;;14.50;2.20;;;14.60;99.90;;;;;;5024042;28;20087;-78
2022/07/10 03:57:53;;;;;;;12.05;1.75;;;14.60;99.90;;;;;;5006405;28;20083;-75
2022/07/10 04:00:29;;;;;;;14.55;1.98;;;14.50;99.90;;;;;;5012032;28;20036;-77
2022/07/10 04:02:59;;;;;;;14.40;1.92;;;14.70;99.90;;;;;;5056641;28;20131;-77
2022/07/10 04:05:26;;;;;;;13.68;2.17;;;14.70;99.90;;;;;;5060080;28;20061;-78
2022/07/10 04:07:51;;;;;;;13.38;1.58;;;14.70;99.90;;;;;;5050720;28;20063;-77
2022/07/10 04:10:17;;;;;;;17.08;2.22;;;14.70;99.90;;;;;;5059214;28;20476;-76
2022/07/10 04:12:44;;;;;;;15.82;2.03;;;14.80;99.90;;;;;;5025804;28;20034;-77
2022/07/10 04:15:10;;;;;;;19.90;2.22;;;14.80;99.90;;;;;;5054726;28;20120;-78
2022/07/10 04:17:36;;;;;;;11.50;1.95;;;14.80;99.90;;;;;;5022182;28;20052;-78
2022/07/10 04:20:02;;;;;;;14.85;1.92;;;14.80;99.90;;;;;;5009895;28;20045;-77
2022/07/10 04:22:33;;;;;;;14.73;2.53;;;14.80;99.90;;;;;;5010288;28;20070;-76
2022/07/10 04:24:59;;;;;;;11.93;2.15;;;14.80;99.90;;;;;;5024562;28;20036;-77
2022/07/10 04:27:25;;;;;;;14.25;2.13;;;14.90;99.90;;;;;;5058200;28;20500;-78
2022/07/10 04:29:51;;;;;;;16.60;2.30;;;14.90;99.90;;;;;;5072426;28;20128;-78
2022/07/10 04:32:17;;;;;;;13.35;2.35;;;14.90;99.90;;;;;;5041079;28;20124;-76
2022/07/10 04:34:43;;;;;;;18.45;2.00;;;14.90;99.90;;;;;;5059756;28;20365;-77
2022/07/10 04:37:09;;;;;;;13.88;2.10;;;14.90;99.90;;;;;;5049978;28;20056;-78
2022/07/10 04:39:35;;;;;;;16.25;1.95;;;15.10;99.90;;;;;;5064095;28;21471;-78
2022/07/10 04:42:03;;;;;;;15.80;2.40;;;15.00;99.90;;;;;;5058818;28;20055;-75
2022/07/10 04:44:29;;;;;;;13.68;2.25;;;15.00;99.90;;;;;;5057207;28;20057;-76
2022/07/10 04:46:55;;;;;;;19.65;2.35;;;15.10;99.90;;;;;;5038579;28;20108;-78
2022/07/10 04:49:20;;;;;;;15.32;2.20;;;15.10;99.90;;;;;;5024648;28;20042;-77
2022/07/10 04:51:46;;;;;;;9.68;2.00;;;15.10;99.90;;;;;;5072568;28;21484;-77
2022/07/10 04:54:11;;;;;;;11.32;1.90;;;15.20;99.90;;;;;;5030936;28;20049;-78
2022/07/10 04:56:37;;;;;;;14.18;1.80;;;15.20;99.90;;;;;;5077374;28;20171;-78
2022/07/10 04:59:03;;;;;;;9.88;1.48;;;15.30;99.90;;;;;;5043725;28;20045;-78
2022/07/10 05:01:28;;;;;;;9.77;1.35;;;15.30;99.90;;;;;;5079254;28;20044;-77
2022/07/10 05:03:54;;;;;;;6.10;1.17;;;15.30;99.90;;;;;;5046934;28;20039;-79
2022/07/10 05:06:20;;;;;;;10.35;2.22;;;15.30;99.90;;;;;;5044908;28;20047;-75
2022/07/10 05:08:46;;;;;;;12.63;1.88;;;15.40;99.90;;;;;;5030900;28;20036;-76
2022/07/10 05:11:11;;;;;;;6.65;1.30;;;15.40;99.90;;;;;;5076743;28;20086;-76
2022/07/10 05:13:37;;;;;;;6.75;1.38;;;15.40;99.90;;;;;;5028223;28;20048;-78
2022/07/10 05:16:05;;;;;;;9.07;1.40;;;15.40;99.90;;;;;;5059632;28;20056;-79
2022/07/10 05:18:30;;;;;;;8.57;1.30;;;15.40;99.90;;;;;;5029042;28;20048;-77
2022/07/10 05:20:56;;;;;;;11.73;1.48;;;15.40;99.90;;;;;;5044721;28;20067;-78
2022/07/10 05:23:22;;;;;;;11.43;1.80;;;15.30;99.90;;;;;;5046169;28;20109;-78
2022/07/10 05:25:48;;;;;;;9.65;1.70;;;15.30;99.90;;;;;;5046860;28;20051;-78
2022/07/10 05:28:14;;;;;;;19.27;1.85;;;15.30;99.90;;;;;;5058851;28;20049;-78
2022/07/10 05:30:41;;;;;;;13.52;2.15;;;15.30;99.90;;;;;;5074320;28;20103;-77
2022/07/10 05:33:07;;;;;;;10.35;1.67;;;15.30;99.90;;;;;;5049375;28;20036;-76
2022/07/10 05:35:33;;;;;;;7.53;1.70;;;15.40;99.90;;;;;;5053872;28;20401;-76
2022/07/10 05:37:58;;;;;;;8.20;1.60;;;15.50;99.90;;;;;;5050105;28;20472;-77
2022/07/10 05:40:24;;;;;;;11.95;2.30;;;15.50;99.90;;;;;;5046593;28;20131;-77
2022/07/10 05:42:50;;;;;;;10.02;1.63;;;15.60;99.90;;;;;;5045879;28;20411;-78
2022/07/10 05:45:15;;;;;;;15.32;2.03;;;15.60;99.90;;;;;;5028659;28;20047;-78
2022/07/10 05:47:41;;;;;;;9.82;1.90;;;15.60;99.90;;;;;;5027866;28;20047;-77
2022/07/10 05:50:08;;;;;;;16.45;2.30;;;15.60;99.90;;;;;;5063046;28;20146;-78
2022/07/10 05:52:34;;;;;;;12.98;2.15;;;15.60;99.90;;;;;;5046191;28;20264;-78
2022/07/10 05:54:59;;;;;;;12.18;1.58;;;15.60;99.90;;;;;;5078040;28;20055;-77
2022/07/10 05:57:25;;;;;;;10.88;1.95;;;15.70;99.90;;;;;;5057439;28;20044;-77
2022/07/10 05:59:52;;;;;;;8.57;1.50;;;15.70;99.90;;;;;;5046038;28;20530;-79
2022/07/10 06:02:19;;;;;;;14.40;1.98;;;15.70;99.90;;;;;;5063079;28;20119;-79
2022/07/10 06:04:45;;;;;;;8.80;1.85;;;15.60;99.90;;;;;;5052810;28;20118;-77
2022/07/10 06:07:10;;;;;;;9.57;1.65;;;15.70;99.90;;;;;;5065668;28;20056;-78
2022/07/10 06:09:36;;;;;;;17.45;2.10;;;15.60;99.90;;;;;;5049930;28;20044;-77
2022/07/10 06:12:02;;;;;;;5.65;1.30;;;15.60;99.90;;;;;;5061163;28;20040;-78
2022/07/10 06:14:28;;;;;;;7.75;1.50;;;15.70;99.90;;;;;;5044331;28;20040;-78
2022/07/10 06:16:53;;;;;;;9.45;1.70;;;15.60;99.90;;;;;;5039874;28;20114;-79
2022/07/10 06:19:19;;;;;;;15.90;2.00;;;15.70;99.90;;;;;;5031846;28;20043;-77
2022/07/10 06:21:45;;;;;;;12.13;2.00;;;15.90;99.90;;;;;;5029238;28;20487;-78
2022/07/10 06:24:10;;;;;;;16.38;2.05;;;15.80;99.90;;;;;;5031297;28;20048;-76
2022/07/10 06:26:36;;;;;;;13.13;1.83;;;15.90;99.90;;;;;;5020191;28;20108;-78
2022/07/10 06:29:02;;;;;;;8.23;1.75;;;16.00;99.90;;;;;;5039928;28;20103;-78
2022/07/10 06:31:28;;;;;;;12.55;1.88;;;15.90;99.90;;;;;;5076482;28;20055;-78
2022/07/10 06:33:54;;;;;;;13.35;2.38;;;16.00;99.90;;;;;;5047521;28;20039;-78
2022/07/10 06:36:20;;;;;;;7.97;1.42;;;16.00;99.90;;;;;;5045842;28;20036;-79
2022/07/10 06:38:46;;;;;;;13.95;1.67;;;16.00;99.90;;;;;;5045249;28;20048;-76
2022/07/10 06:41:11;;;;;;;7.07;1.50;;;16.00;99.90;;;;;;5049922;28;20045;-77
2022/07/10 06:43:37;;;;;;;11.48;1.60;;;16.00;99.90;;;;;;5060666;28;20727;-76
2022/07/10 06:46:03;;;;;;;10.30;1.80;;;16.00;99.90;;;;;;5027661;28;20055;-76
2022/07/10 06:48:29;;;;;;;10.27;1.92;;;16.10;99.90;;;;;;5057512;28;20418;-77
2022/07/10 06:50:55;;;;;;;8.63;1.20;;;16.10;99.90;;;;;;5043963;28;20040;-78
2022/07/10 06:53:26;;;;;;;6.72;1.30;;;16.10;99.90;;;;;;5077493;28;20167;-77
2022/07/10 06:55:53;;;;;;;9.65;1.42;;;16.20;99.90;;;;;;5060329;28;20059;-78
2022/07/10 06:58:19;;;;;;;8.48;1.23;;;16.10;99.90;;;;;;5087248;28;20047;-76
2022/07/10 07:01:03;;;;;;;6.88;1.17;;;16.10;99.90;;;;;;5044656;28;20398;-76
2022/07/10 07:03:29;;;;;;;6.70;1.30;;;16.20;99.90;;;;;;5086220;28;20056;-75
2022/07/10 07:05:54;;;;;;;7.97;1.50;;;16.10;99.90;;;;;;5050920;28;20421;-78
2022/07/10 07:08:20;;;;;;;8.10;1.33;;;16.10;99.90;;;;;;5076267;28;20337;-79
2022/07/10 07:10:46;;;;;;;6.15;1.20;;;16.00;99.90;;;;;;5063060;28;20032;-76
2022/07/10 07:13:12;;;;;;;5.45;1.23;;;15.80;99.90;;;;;;5062635;28;20501;-81
2022/07/10 07:15:41;;;;;;;7.10;1.08;;;15.60;99.90;;;;;;5063646;28;20560;-79
2022/07/10 07:18:08;;;;;;;6.50;1.58;;;15.50;99.90;;;;;;5045367;28;20186;-79
2022/07/10 07:23:23;;;;;;;8.15;1.27;;;15.50;99.90;;;;;;5078229;28;20129;-75
2022/07/10 07:25:48;;;;;;;7.38;1.10;;;15.40;99.90;;;;;;5078958;28;20462;-75
2022/07/10 07:28:15;;;;;;;4.40;1.10;;;15.30;99.90;;;;;;5052830;28;20127;-75
2022/07/10 07:30:41;;;;;;;8.50;1.42;;;15.20;99.90;;;;;;5030151;28;20071;-76
2022/07/10 07:33:07;;;;;;;11.07;1.67;;;15.30;99.90;;;;;;5061465;28;20048;-74
2022/07/10 07:35:33;;;;;;;6.85;1.20;;;15.20;99.90;;;;;;5028761;28;20048;-77
2022/07/10 07:38:00;;;;;;;9.93;1.60;;;15.20;99.90;;;;;;5059314;28;20036;-77
2022/07/10 07:40:26;;;;;;;6.50;1.55;;;15.40;99.90;;;;;;5046085;28;20080;-76
2022/07/10 07:42:53;;;;;;;10.38;1.40;;;15.60;99.90;;;;;;5046577;28;20136;-78
2022/07/10 07:45:39;;;;;;;7.10;1.30;;;15.70;99.90;;;;;;5027927;28;20055;-74
2022/07/10 07:48:04;;;;;;;7.47;1.40;;;15.80;99.90;;;;;;5041955;28;20102;-75
2022/07/10 07:50:35;;;;;;;7.50;1.45;;;15.90;99.90;;;;;;5044960;28;20033;-77
2022/07/10 07:53:02;;;;;;;6.82;1.30;;;16.00;99.90;;;;;;5026601;28;20123;-78
2022/07/10 07:55:29;;;;;;;5.50;1.30;;;16.00;99.90;;;;;;5061770;28;20036;-76
2022/07/10 07:57:56;;;;;;;8.95;1.58;;;16.20;99.90;;;;;;5071308;28;20041;-76
2022/07/10 08:00:23;;;;;;;10.68;1.60;;;16.30;99.90;;;;;;5041838;28;20119;-73
2022/07/10 08:02:50;;;;;;;7.65;1.23;;;16.30;99.90;;;;;;5080575;28;20044;-75
2022/07/10 08:05:18;;;;;;;8.40;1.50;;;16.30;99.90;;;;;;5050329;28;20044;-76
2022/07/10 08:07:45;;;;;;;9.57;1.27;;;16.20;99.90;;;;;;5070271;28;20053;-75
2022/07/10 08:10:15;;;;;;;9.60;1.55;;;16.20;99.90;;;;;;5024480;28;20579;-79
2022/07/10 08:12:42;;;;;;;10.93;1.70;;;16.20;99.90;;;;;;5064423;28;20084;-74
2022/07/10 08:15:10;;;;;;;12.07;1.50;;;16.40;99.90;;;;;;5045316;28;20127;-75
2022/07/10 08:17:36;;;;;;;7.38;1.00;;;16.30;99.90;;;;;;5053703;28;20047;-76
2022/07/10 08:20:03;;;;;;;6.95;1.30;;;16.10;99.90;;;;;;5035587;28;20066;-78
2022/07/10 08:22:29;;;;;;;5.65;1.20;;;16.10;99.90;;;;;;5065078;28;20141;-75
2022/07/10 08:24:56;;;;;;;7.15;1.17;;;16.30;99.90;;;;;;5035668;28;20083;-75
2022/07/10 08:27:23;;;;;;;3.65;1.00;;;16.70;99.90;;;;;;5066678;28;20127;-75
2022/07/10 08:29:48;;;;;;;3.13;0.80;;;16.70;99.90;;;;;;5065770;28;20171;-76
2022/07/10 08:32:14;;;;;;;6.18;0.90;;;16.90;99.90;;;;;;5047446;28;20595;-76
2022/07/10 08:34:40;;;;;;;5.28;0.70;;;16.90;99.90;;;;;;5079576;28;20078;-77
2022/07/10 08:37:06;;;;;;;2.97;0.70;;;17.00;99.90;;;;;;5063800;28;20037;-73
2022/07/10 08:39:32;;;;;;;4.53;0.60;;;17.00;99.90;;;;;;5039645;28;20045;-74
2022/07/10 08:42:04;;;;;;;3.55;0.80;;;17.00;99.90;;;;;;5051388;28;20059;-75
2022/07/10 08:44:30;;;;;;;2.15;0.60;;;17.00;99.90;;;;;;5051279;28;20043;-75
2022/07/10 08:46:56;;;;;;;2.42;0.65;;;17.10;99.90;;;;;;5045417;28;20051;-75
2022/07/10 08:49:30;;;;;;;2.72;0.77;;;17.10;99.90;;;;;;5030842;28;20155;-75
2022/07/10 08:52:08;;;;;;;6.00;0.82;;;17.30;99.90;;;;;;5043275;28;20076;-76
2022/07/10 08:54:34;;;;;;;5.53;0.70;;;17.20;99.90;;;;;;5046401;28;20510;-78
2022/07/10 08:57:03;;;;;;;4.80;1.25;;;17.20;99.90;;;;;;5069747;28;20472;-75
2022/07/10 08:59:30;;;;;;;8.35;1.23;;;17.40;99.90;;;;;;5043412;28;20040;-75
2022/07/10 09:01:56;;;;;;;6.18;1.13;;;17.40;99.90;;;;;;5046214;28;20042;-76
2022/07/10 09:04:25;;;;;;;3.92;0.80;;;17.40;99.90;;;;;;5052332;28;20040;-78
2022/07/10 09:06:52;;;;;;;9.15;1.17;;;17.30;99.90;;;;;;5028625;28;20036;-77
2022/07/10 09:09:18;;;;;;;6.40;1.10;;;17.50;99.90;;;;;;5048236;28;20063;-76
2022/07/10 09:11:45;;;;;;;3.55;0.65;;;17.40;99.90;;;;;;5025837;28;20059;-76
2022/07/10 09:14:16;;;;;;;2.83;0.82;;;17.40;99.90;;;;;;5059974;28;20044;-75
2022/07/10 09:16:44;;;;;;;5.38;0.90;;;17.20;99.90;;;;;;5050231;28;20052;-75
2022/07/10 09:19:25;;;;;;;3.05;0.90;;;17.10;99.90;;;;;;5029411;28;20047;-76
2022/07/10 09:22:06;;;;;;;3.30;1.02;;;17.20;99.90;;;;;;5039585;28;20036;-76
2022/07/10 09:24:41;;;;;;;7.32;1.27;;;17.20;99.90;;;;;;5063194;28;20036;-76
2022/07/10 09:27:08;;;;;;;2.70;0.75;;;17.00;99.90;;;;;;5044006;28;20032;-76
2022/07/10 09:29:54;;;;;;;3.72;1.23;;;16.80;99.90;;;;;;5083487;28;20056;-75
2022/07/10 09:32:21;;;;;;;4.53;1.25;;;16.70;99.90;;;;;;5053371;28;20363;-76
2022/07/10 09:34:48;;;;;;;2.78;1.08;;;16.30;99.90;;;;;;5036138;28;20173;-75
2022/07/10 09:37:23;;;;;;;3.28;1.00;;;16.30;99.90;;;;;;5053400;28;20128;-76
2022/07/10 09:40:00;;;;;;;4.45;1.27;;;16.30;99.90;;;;;;5065681;28;20055;-76
2022/07/10 09:42:29;;;;;;;3.28;1.20;;;16.20;99.90;;;;;;5084244;28;20044;-76
2022/07/10 09:48:36;;;;;;;4.13;1.27;;;16.10;99.90;;;;;;5072223;28;20499;-76
2022/07/10 09:51:06;;;;;;;4.13;1.17;;;16.00;99.90;;;;;;5051491;28;20036;-76
2022/07/10 09:53:39;;;;;;;6.50;1.40;;;16.00;99.90;;;;;;5085614;28;20361;-76
2022/07/10 09:56:08;;;;;;;8.55;1.38;;;16.00;99.90;;;;;;5051765;28;20095;-76
2022/07/10 09:58:35;;;;;;;4.15;1.30;;;16.00;99.90;;;;;;5038373;28;20131;-76
2022/07/10 10:01:06;;;;;;;7.05;1.92;;;15.90;99.90;;;;;;5057934;28;20056;-76
2022/07/10 10:03:38;;;;;;;4.20;1.33;;;15.90;99.90;;;;;;5053465;28;20047;-77
2022/07/10 10:06:15;;;;;;;5.90;1.40;;;15.90;99.90;;;;;;5064649;28;20051;-78
2022/07/10 10:08:53;;;;;;;5.97;1.20;;;16.10;99.90;;;;;;5062600;28;20044;-78
2022/07/10 10:11:23;;;;;;;8.18;1.55;;;16.20;99.90;;;;;;5051134;28;20040;-77
2022/07/10 10:13:50;;;;;;;6.57;1.45;;;16.30;99.90;;;;;;5033152;28;20048;-77
2022/07/10 10:16:15;;;;;;;5.90;1.40;;;16.50;99.90;;;;;;5049267;28;20091;-77
2022/07/10 10:21:29;;;;;;;7.20;1.70;;;16.60;99.90;;;;;;5082910;28;20045;-78
2022/07/10 10:23:56;;;;;;;9.52;2.20;;;16.80;99.90;;;;;;5033706;28;20032;-77
2022/07/10 10:26:23;;;;;;;12.52;2.28;;;16.70;99.90;;;;;;5064958;28;20071;-79
2022/07/10 10:28:51;;;;;;;12.52;2.30;;;16.60;99.90;;;;;;5029554;28;20053;-77
2022/07/10 10:31:18;;;;;;;10.95;2.05;;;16.70;99.90;;;;;;5018638;28;20056;-77
2022/07/10 10:33:45;;;;;;;11.07;2.15;;;16.70;99.90;;;;;;5047305;28;20045;-76
2022/07/10 10:36:36;;;;;;;9.43;2.03;;;17.00;99.90;;;;;;5029408;28;20047;-76
2022/07/10 10:39:16;;;;;;;8.15;2.17;;;17.10;99.90;;;;;;5046442;28;20292;-77
2022/07/10 10:41:52;;;;;;;8.15;2.20;;;17.20;99.90;;;;;;5043474;28;20115;-77
2022/07/10 10:44:17;;;;;;;11.93;2.35;;;17.30;99.90;;;;;;5028354;28;20220;-79
2022/07/10 10:46:59;;;;;;;7.10;1.88;;;17.50;99.90;;;;;;5028155;28;20158;-75
2022/07/10 10:49:25;;;;;;;10.05;2.10;;;17.50;99.90;;;;;;5029660;28;20040;-77
2022/07/10 10:52:03;;;;;;;8.70;2.00;;;17.10;99.90;;;;;;5023346;28;20193;-78
2022/07/10 10:55:03;;;;;;;8.07;1.80;;;17.00;99.90;;;;;;5027065;28;20036;-80
2022/07/10 10:57:32;;;;;;;7.45;1.77;;;16.80;99.90;;;;;;5028367;28;20437;-79
2022/07/10 10:59:59;;;;;;;7.03;1.58;;;17.10;99.90;;;;;;5037869;28;20094;-77
2022/07/10 11:02:39;;;;;;;6.22;1.50;;;17.10;99.90;;;;;;5023560;28;20048;-75
2022/07/10 11:05:10;;;;;;;6.95;1.65;;;17.10;99.90;;;;;;5055127;28;20442;-76
2022/07/10 11:07:52;;;;;;;8.52;1.80;;;17.30;99.90;;;;;;5066111;28;20041;-74
2022/07/10 11:10:39;;;;;;;11.30;1.67;;;17.60;99.90;;;;;;5009357;28;20112;-76
2022/07/10 11:13:15;;;;;;;6.40;1.63;;;17.70;99.90;;;;;;5046871;28;20064;-76
2022/07/10 11:15:47;;;;;;;7.30;1.75;;;17.80;99.90;;;;;;5049755;28;20068;-74
2022/07/10 11:18:14;;;;;;;8.57;1.67;;;18.00;99.90;;;;;;5034282;28;20128;-79
2022/07/10 11:20:50;;;;;;;11.88;1.67;;;18.30;99.90;;;;;;5066506;28;20056;-79
2022/07/10 11:23:30;;;;;;;6.80;1.58;;;18.10;99.90;;;;;;5060449;28;20082;-78
2022/07/10 11:26:07;;;;;;;8.10;1.85;;;17.90;99.90;;;;;;5058831;28;20422;-79
2022/07/10 11:28:53;;;;;;;8.23;1.83;;;17.40;99.90;;;;;;5042300;28;20049;-76
2022/07/10 11:31:21;;;;;;;6.45;1.90;;;17.60;99.90;;;;;;5027810;28;20044;-77
2022/07/10 11:33:49;;;;;;;5.75;1.52;;;17.80;99.90;;;;;;5058106;28;20037;-78
2022/07/10 11:36:16;;;;;;;6.18;1.50;;;17.90;99.90;;;;;;5031030;28;20057;-75
2022/07/10 11:38:44;;;;;;;7.30;1.70;;;18.10;99.90;;;;;;5060462;28;20052;-76
2022/07/10 11:41:18;;;;;;;6.15;1.52;;;18.20;99.90;;;;;;5048164;28;20483;-75
2022/07/10 11:43:55;;;;;;;4.78;1.58;;;18.40;99.90;;;;;;5057520;28;20059;-74
2022/07/10 11:46:23;;;;;;;5.60;1.40;;;18.50;99.90;;;;;;5053874;28;20555;-75
2022/07/10 11:48:52;;;;;;;5.80;1.67;;;18.60;99.90;;;;;;5024754;28;20486;-75
2022/07/10 11:51:24;;;;;;;10.80;1.70;;;18.60;99.90;;;;;;5037618;28;20123;-75
2022/07/10 11:54:03;;;;;;;3.95;1.25;;;18.60;99.90;;;;;;5083385;28;20758;-74
2022/07/10 11:56:33;;;;;;;5.95;1.42;;;18.30;99.90;;;;;;5064769;28;20329;-74
2022/07/10 11:59:04;;;;;;;4.47;1.50;;;18.30;99.90;;;;;;5029503;28;20060;-76
2022/07/10 12:01:34;;;;;;;6.50;1.50;;;18.30;99.90;;;;;;5052179;28;20071;-76
2022/07/10 12:04:05;;;;;;;11.32;1.67;;;18.20;99.90;;;;;;5080587;28;20136;-75
2022/07/10 12:06:32;;;;;;;9.70;2.03;;;18.30;99.90;;;;;;5081614;28;20055;-75
2022/07/10 12:09:07;;;;;;;6.60;1.73;;;18.20;99.90;;;;;;5046967;28;20592;-79
2022/07/10 12:11:33;;;;;;;9.00;2.05;;;18.30;99.90;;;;;;5041364;28;20224;-78
2022/07/10 12:14:18;;;;;;;9.90;1.90;;;18.40;99.90;;;;;;5063308;28;20055;-77
2022/07/10 12:16:49;;;;;;;9.95;2.30;;;18.30;99.90;;;;;;5042749;28;20044;-78
2022/07/10 12:19:38;;;;;;;6.85;1.90;;;18.40;99.90;;;;;;5029578;28;20140;-76
2022/07/10 12:22:07;;;;;;;9.30;2.03;;;18.40;99.90;;;;;;5074859;28;20484;-77
2022/07/10 12:24:33;;;;;;;11.20;2.05;;;18.40;99.90;;;;;;5044704;28;20059;-75
2022/07/10 12:26:59;;;;;;;4.28;1.60;;;18.40;99.90;;;;;;5086476;28;20185;-76
2022/07/10 12:29:27;;;;;;;5.68;1.60;;;18.30;99.90;;;;;;5046871;28;20127;-74
2022/07/10 12:32:03;;;;;;;8.98;1.98;;;18.20;99.90;;;;;;5031674;28;20105;-76
2022/07/10 12:34:36;;;;;;;12.02;1.90;;;18.10;99.90;;;;;;5039720;28;20060;-75
2022/07/10 12:37:10;;;;;;;5.75;1.80;;;18.10;99.90;;;;;;5044514;28;20144;-77
2022/07/10 12:39:38;;;;;;;8.03;1.80;;;18.10;99.90;;;;;;5052606;28;20118;-76
2022/07/10 12:42:06;;;;;;;7.97;1.60;;;18.00;99.90;;;;;;5050103;28;20032;-78
2022/07/10 12:44:41;;;;;;;5.97;1.27;;;17.90;99.90;;;;;;5051599;28;20374;-75
2022/07/10 12:47:11;;;;;;;5.35;1.50;;;17.60;99.90;;;;;;5075598;28;20101;-76
2022/07/10 12:49:57;;;;;;;6.57;1.40;;;17.40;99.90;;;;;;5061894;28;20110;-78
2022/07/10 12:52:34;;;;;;;7.72;2.00;;;17.20;99.90;;;;;;5084384;28;20139;-76
2022/07/10 12:55:10;;;;;;;7.07;1.27;;;17.10;99.90;;;;;;5087253;28;20079;-78
2022/07/10 12:57:51;;;;;;;5.90;1.45;;;16.90;99.90;;;;;;5037080;28;20095;-76
2022/07/10 13:00:21;;;;;;;6.20;1.63;;;16.70;99.90;;;;;;5068329;28;20088;-75